sensor_id;sensor_type;location;lat;lon;timestamp;temperature;humidity
2625;DHT22;1322;53.256;10.386;2024-02-23T00:00:03;10.70;99.90
2625;DHT22;1322;53.256;10.386;2024-02-23T00:02:31;10.70;99.90
2625;DHT22;1322;53.256;10.386;2024-02-23T00:04:57;10.70;99.90
2625;DHT22;1322;53.256;10.386;2024-02-23T00:07:22;10.80;99.90
2625;DHT22;1322;53.256;10.386;2024-02-23T00:09:48;10.80;99.90
2625;DHT22;1322;53.256;10.386;2024-02-23T00:12:14;10.80;99.90
2625;DHT22;1322;53.256;10.386;2024-02-23T00:14:39;10.80;99.90
2625;DHT22;1322;53.256;10.386;2024-02-23T00:17:05;10.90;99.90
2625;DHT22;1322;53.256;10.386;2024-02-23T00:19:31;10.80;99.90
2625;DHT22;1322;53.256;10.386;2024-02-23T00:21:57;10.90;99.90
2625;DHT22;1322;53.256;10.386;2024-02-23T00:24:25;10.90;99.90
2625;DHT22;1322;53.256;10.386;2024-02-23T00:26:51;10.90;99.90
2625;DHT22;1322;53.256;10.386;2024-02-23T00:29:17;10.90;99.90
2625;DHT22;1322;53.256;10.386;2024-02-23T00:31:42;10.90;99.90
2625;DHT22;1322;53.256;10.386;2024-02-23T00:34:10;10.80;99.90
2625;DHT22;1322;53.256;10.386;2024-02-23T00:36:39;10.70;99.90
2625;DHT22;1322;53.256;10.386;2024-02-23T00:39:05;10.50;99.90
2625;DHT22;1322;53.256;10.386;2024-02-23T00:41:32;10.50;99.90
2625;DHT22;1322;53.256;10.386;2024-02-23T00:43:58;10.40;99.90
2625;DHT22;1322;53.256;10.386;2024-02-23T00:46:24;10.20;99.90
2625;DHT22;1322;53.256;10.386;2024-02-23T00:48:50;10.20;99.90
2625;DHT22;1322;53.256;10.386;2024-02-23T00:51:15;10.10;99.90
2625;DHT22;1322;53.256;10.386;2024-02-23T00:53:41;10.10;99.90
2625;DHT22;1322;53.256;10.386;2024-02-23T00:56:07;10.10;99.90
2625;DHT22;1322;53.256;10.386;2024-02-23T00:58:32;10.10;99.90
2625;DHT22;1322;53.256;10.386;2024-02-23T01:00:59;10.10;99.90
2625;DHT22;1322;53.256;10.386;2024-02-23T01:03:24;10.10;99.90
2625;DHT22;1322;53.256;10.386;2024-02-23T01:05:50;10.10;99.90
2625;DHT22;1322;53.256;10.386;2024-02-23T01:08:16;10.10;99.90
2625;DHT22;1322;53.256;10.386;2024-02-23T01:10:41;10.10;99.90
2625;DHT22;1322;53.256;10.386;2024-02-23T01:13:07;10.10;99.90
2625;DHT22;1322;53.256;10.386;2024-02-23T01:15:32;10.10;99.90
2625;DHT22;1322;53.256;10.386;2024-02-23T01:17:58;10.10;99.90
2625;DHT22;1322;53.256;10.386;2024-02-23T01:20:24;10.00;99.90
2625;DHT22;1322;53.256;10.386;2024-02-23T01:22:49;10.00;99.90
2625;DHT22;1322;53.256;10.386;2024-02-23T01:25:15;10.00;99.90
2625;DHT22;1322;53.256;10.386;2024-02-23T01:27:41;10.00;99.90
2625;DHT22;1322;53.256;10.386;2024-02-23T01:30:07;10.00;99.90
2625;DHT22;1322;53.256;10.386;2024-02-23T01:32:33;10.00;99.90
2625;DHT22;1322;53.256;10.386;2024-02-23T01:34:59;10.10;99.90
2625;DHT22;1322;53.256;10.386;2024-02-23T01:37:24;10.20;99.90
2625;DHT22;1322;53.256;10.386;2024-02-23T01:39:50;10.30;99.90
2625;DHT22;1322;53.256;10.386;2024-02-23T01:42:15;10.30;99.90
2625;DHT22;1322;53.256;10.386;2024-02-23T01:44:41;10.20;99.90
2625;DHT22;1322;53.256;10.386;2024-02-23T01:47:07;9.90;99.90
2625;DHT22;1322;53.256;10.386;2024-02-23T01:49:33;9.60;99.90
2625;DHT22;1322;53.256;10.386;2024-02-23T01:52:00;9.60;99.90
2625;DHT22;1322;53.256;10.386;2024-02-23T01:54:27;9.30;99.90
2625;DHT22;1322;53.256;10.386;2024-02-23T01:56:56;9.30;99.90
2625;DHT22;1322;53.256;10.386;2024-02-23T01:59:24;9.30;99.90
2625;DHT22;1322;53.256;10.386;2024-02-23T02:01:50;9.20;99.90
2625;DHT22;1322;53.256;10.386;2024-02-23T02:04:16;9.30;99.90
2625;DHT22;1322;53.256;10.386;2024-02-23T02:06:42;9.20;99.90
2625;DHT22;1322;53.256;10.386;2024-02-23T02:09:08;9.10;99.90
2625;DHT22;1322;53.256;10.386;2024-02-23T02:11:33;9.20;99.90
2625;DHT22;1322;53.256;10.386;2024-02-23T02:13:59;9.10;99.90
2625;DHT22;1322;53.256;10.386;2024-02-23T02:16:25;9.10;99.90
2625;DHT22;1322;53.256;10.386;2024-02-23T02:18:51;9.00;99.90
2625;DHT22;1322;53.256;10.386;2024-02-23T02:21:16;9.00;99.90
2625;DHT22;1322;53.256;10.386;2024-02-23T02:23:42;9.00;99.90
2625;DHT22;1322;53.256;10.386;2024-02-23T02:26:08;8.90;99.90
2625;DHT22;1322;53.256;10.386;2024-02-23T02:28:33;8.90;99.90
2625;DHT22;1322;53.256;10.386;2024-02-23T02:30:59;8.80;99.90
2625;DHT22;1322;53.256;10.386;2024-02-23T02:33:25;8.60;99.90
2625;DHT22;1322;53.256;10.386;2024-02-23T02:35:51;8.50;99.90
2625;DHT22;1322;53.256;10.386;2024-02-23T02:38:16;8.50;99.90
2625;DHT22;1322;53.256;10.386;2024-02-23T02:40:42;8.50;99.90
2625;DHT22;1322;53.256;10.386;2024-02-23T02:43:08;8.50;99.90
2625;DHT22;1322;53.256;10.386;2024-02-23T02:45:33;8.30;99.90
2625;DHT22;1322;53.256;10.386;2024-02-23T02:48:03;8.40;99.90
2625;DHT22;1322;53.256;10.386;2024-02-23T02:50:28;8.40;99.90
2625;DHT22;1322;53.256;10.386;2024-02-23T02:52:54;8.40;99.90
2625;DHT22;1322;53.256;10.386;2024-02-23T02:55:20;8.20;99.90
2625;DHT22;1322;53.256;10.386;2024-02-23T02:57:46;8.10;99.90
2625;DHT22;1322;53.256;10.386;2024-02-23T03:00:12;8.10;99.90
2625;DHT22;1322;53.256;10.386;2024-02-23T03:02:38;8.10;99.90
2625;DHT22;1322;53.256;10.386;2024-02-23T03:05:03;8.20;99.90
2625;DHT22;1322;53.256;10.386;2024-02-23T03:07:29;8.00;99.90
2625;DHT22;1322;53.256;10.386;2024-02-23T03:09:55;8.00;99.90
2625;DHT22;1322;53.256;10.386;2024-02-23T03:12:21;8.10;99.90
2625;DHT22;1322;53.256;10.386;2024-02-23T03:14:47;8.00;99.90
2625;DHT22;1322;53.256;10.386;2024-02-23T03:17:12;8.00;99.90
2625;DHT22;1322;53.256;10.386;2024-02-23T03:19:38;7.90;99.90
2625;DHT22;1322;53.256;10.386;2024-02-23T03:22:04;7.90;99.90
2625;DHT22;1322;53.256;10.386;2024-02-23T03:24:30;7.90;99.90
2625;DHT22;1322;53.256;10.386;2024-02-23T03:26:56;7.90;99.90
2625;DHT22;1322;53.256;10.386;2024-02-23T03:29:22;7.60;99.90
2625;DHT22;1322;53.256;10.386;2024-02-23T03:31:55;7.50;99.90
2625;DHT22;1322;53.256;10.386;2024-02-23T03:34:20;7.40;99.90
2625;DHT22;1322;53.256;10.386;2024-02-23T03:36:46;7.30;99.90
2625;DHT22;1322;53.256;10.386;2024-02-23T03:39:11;7.40;99.90
2625;DHT22;1322;53.256;10.386;2024-02-23T03:41:37;7.30;99.90
2625;DHT22;1322;53.256;10.386;2024-02-23T03:44:03;7.30;99.90
2625;DHT22;1322;53.256;10.386;2024-02-23T03:46:28;7.40;99.90
2625;DHT22;1322;53.256;10.386;2024-02-23T03:48:54;7.40;99.90
2625;DHT22;1322;53.256;10.386;2024-02-23T03:51:20;7.40;99.90
2625;DHT22;1322;53.256;10.386;2024-02-23T03:53:45;7.40;99.90
2625;DHT22;1322;53.256;10.386;2024-02-23T03:56:11;7.30;99.90
2625;DHT22;1322;53.256;10.386;2024-02-23T03:58:36;7.30;99.90
2625;DHT22;1322;53.256;10.386;2024-02-23T04:01:02;7.30;99.90
2625;DHT22;1322;53.256;10.386;2024-02-23T04:03:28;7.20;99.90
2625;DHT22;1322;53.256;10.386;2024-02-23T04:05:53;7.20;99.90
2625;DHT22;1322;53.256;10.386;2024-02-23T04:08:19;7.20;99.90
2625;DHT22;1322;53.256;10.386;2024-02-23T04:10:44;7.20;99.90
2625;DHT22;1322;53.256;10.386;2024-02-23T04:13:10;7.10;99.90
2625;DHT22;1322;53.256;10.386;2024-02-23T04:15:39;7.20;99.90
2625;DHT22;1322;53.256;10.386;2024-02-23T04:18:05;7.20;99.90
2625;DHT22;1322;53.256;10.386;2024-02-23T04:20:31;7.10;99.90
2625;DHT22;1322;53.256;10.386;2024-02-23T04:22:57;7.00;99.90
2625;DHT22;1322;53.256;10.386;2024-02-23T04:25:23;6.90;99.90
2625;DHT22;1322;53.256;10.386;2024-02-23T04:27:48;6.90;99.90
2625;DHT22;1322;53.256;10.386;2024-02-23T04:30:14;6.90;99.90
2625;DHT22;1322;53.256;10.386;2024-02-23T04:32:40;6.80;99.90
2625;DHT22;1322;53.256;10.386;2024-02-23T04:35:06;6.80;99.90
2625;DHT22;1322;53.256;10.386;2024-02-23T04:37:31;6.70;99.90
2625;DHT22;1322;53.256;10.386;2024-02-23T04:39:57;6.60;99.90
2625;DHT22;1322;53.256;10.386;2024-02-23T04:42:22;6.60;99.90
2625;DHT22;1322;53.256;10.386;2024-02-23T04:44:48;6.60;99.90
2625;DHT22;1322;53.256;10.386;2024-02-23T04:47:15;6.50;99.90
2625;DHT22;1322;53.256;10.386;2024-02-23T04:49:40;6.60;99.90
2625;DHT22;1322;53.256;10.386;2024-02-23T04:52:07;6.60;99.90
2625;DHT22;1322;53.256;10.386;2024-02-23T04:54:34;6.60;99.90
2625;DHT22;1322;53.256;10.386;2024-02-23T04:57:00;6.60;99.90
2625;DHT22;1322;53.256;10.386;2024-02-23T04:59:26;6.60;99.90
2625;DHT22;1322;53.256;10.386;2024-02-23T05:01:51;6.60;99.90
2625;DHT22;1322;53.256;10.386;2024-02-23T05:04:17;6.50;99.90
2625;DHT22;1322;53.256;10.386;2024-02-23T05:06:43;6.60;99.90
2625;DHT22;1322;53.256;10.386;2024-02-23T05:09:09;6.50;99.90
2625;DHT22;1322;53.256;10.386;2024-02-23T05:11:35;6.50;99.90
2625;DHT22;1322;53.256;10.386;2024-02-23T05:14:01;6.40;99.90
2625;DHT22;1322;53.256;10.386;2024-02-23T05:16:26;6.40;99.90
2625;DHT22;1322;53.256;10.386;2024-02-23T05:18:52;6.50;99.90
2625;DHT22;1322;53.256;10.386;2024-02-23T05:21:18;6.40;99.90
2625;DHT22;1322;53.256;10.386;2024-02-23T05:23:43;6.40;99.90
2625;DHT22;1322;53.256;10.386;2024-02-23T05:26:09;6.50;99.90
2625;DHT22;1322;53.256;10.386;2024-02-23T05:28:36;6.50;99.90
2625;DHT22;1322;53.256;10.386;2024-02-23T05:31:02;6.50;99.90
2625;DHT22;1322;53.256;10.386;2024-02-23T05:33:29;6.60;99.90
2625;DHT22;1322;53.256;10.386;2024-02-23T05:35:54;6.70;99.90
2625;DHT22;1322;53.256;10.386;2024-02-23T05:38:20;6.60;99.90
2625;DHT22;1322;53.256;10.386;2024-02-23T05:40:46;6.60;99.90
2625;DHT22;1322;53.256;10.386;2024-02-23T05:43:13;6.70;99.90
2625;DHT22;1322;53.256;10.386;2024-02-23T05:45:39;6.70;99.90
2625;DHT22;1322;53.256;10.386;2024-02-23T05:48:05;6.60;99.90
2625;DHT22;1322;53.256;10.386;2024-02-23T05:50:32;6.70;99.90
2625;DHT22;1322;53.256;10.386;2024-02-23T05:52:57;6.60;99.90
2625;DHT22;1322;53.256;10.386;2024-02-23T05:55:23;6.50;99.90
2625;DHT22;1322;53.256;10.386;2024-02-23T05:57:49;6.50;99.90
2625;DHT22;1322;53.256;10.386;2024-02-23T06:00:16;6.50;99.90
2625;DHT22;1322;53.256;10.386;2024-02-23T06:02:44;6.50;99.90
2625;DHT22;1322;53.256;10.386;2024-02-23T06:05:12;6.50;99.90
2625;DHT22;1322;53.256;10.386;2024-02-23T06:07:38;6.40;99.90
2625;DHT22;1322;53.256;10.386;2024-02-23T06:10:04;6.40;99.90
2625;DHT22;1322;53.256;10.386;2024-02-23T06:12:30;6.50;99.90
2625;DHT22;1322;53.256;10.386;2024-02-23T06:14:56;6.50;99.90
2625;DHT22;1322;53.256;10.386;2024-02-23T06:17:22;6.60;99.90
2625;DHT22;1322;53.256;10.386;2024-02-23T06:19:48;6.70;99.90
2625;DHT22;1322;53.256;10.386;2024-02-23T06:22:14;6.60;99.90
2625;DHT22;1322;53.256;10.386;2024-02-23T06:24:42;6.60;99.90
2625;DHT22;1322;53.256;10.386;2024-02-23T06:27:08;6.50;99.90
2625;DHT22;1322;53.256;10.386;2024-02-23T06:29:33;6.50;99.90
2625;DHT22;1322;53.256;10.386;2024-02-23T06:31:59;6.40;99.90
2625;DHT22;1322;53.256;10.386;2024-02-23T06:34:26;6.40;99.90
2625;DHT22;1322;53.256;10.386;2024-02-23T06:36:52;6.30;99.90
2625;DHT22;1322;53.256;10.386;2024-02-23T06:39:18;6.20;99.90
2625;DHT22;1322;53.256;10.386;2024-02-23T06:41:45;6.10;99.90
2625;DHT22;1322;53.256;10.386;2024-02-23T06:44:11;6.10;99.90
2625;DHT22;1322;53.256;10.386;2024-02-23T06:46:36;6.00;99.90
2625;DHT22;1322;53.256;10.386;2024-02-23T06:49:02;5.90;99.90
2625;DHT22;1322;53.256;10.386;2024-02-23T06:51:31;5.90;99.90
2625;DHT22;1322;53.256;10.386;2024-02-23T06:53:57;5.90;99.90
2625;DHT22;1322;53.256;10.386;2024-02-23T06:56:22;5.90;99.90
2625;DHT22;1322;53.256;10.386;2024-02-23T06:58:48;5.90;99.90
2625;DHT22;1322;53.256;10.386;2024-02-23T07:01:14;6.00;99.90
2625;DHT22;1322;53.256;10.386;2024-02-23T07:03:39;6.10;99.90
2625;DHT22;1322;53.256;10.386;2024-02-23T07:06:08;6.20;99.90
2625;DHT22;1322;53.256;10.386;2024-02-23T07:08:36;6.20;99.90
2625;DHT22;1322;53.256;10.386;2024-02-23T07:11:02;6.30;99.90
2625;DHT22;1322;53.256;10.386;2024-02-23T07:13:27;6.20;99.90
2625;DHT22;1322;53.256;10.386;2024-02-23T07:15:53;6.30;99.90
2625;DHT22;1322;53.256;10.386;2024-02-23T07:18:21;6.30;99.90
2625;DHT22;1322;53.256;10.386;2024-02-23T07:20:47;6.40;99.90
2625;DHT22;1322;53.256;10.386;2024-02-23T07:23:12;6.40;99.90
2625;DHT22;1322;53.256;10.386;2024-02-23T07:25:38;6.50;99.90
2625;DHT22;1322;53.256;10.386;2024-02-23T07:28:04;6.60;99.90
2625;DHT22;1322;53.256;10.386;2024-02-23T07:30:29;6.60;99.90
2625;DHT22;1322;53.256;10.386;2024-02-23T07:32:55;6.60;99.90
2625;DHT22;1322;53.256;10.386;2024-02-23T07:35:21;6.70;99.90
2625;DHT22;1322;53.256;10.386;2024-02-23T07:37:47;6.80;99.90
2625;DHT22;1322;53.256;10.386;2024-02-23T07:40:13;6.80;99.90
2625;DHT22;1322;53.256;10.386;2024-02-23T07:42:38;7.00;99.90
2625;DHT22;1322;53.256;10.386;2024-02-23T07:45:05;7.10;99.90
2625;DHT22;1322;53.256;10.386;2024-02-23T07:47:32;7.20;99.90
2625;DHT22;1322;53.256;10.386;2024-02-23T07:49:58;7.30;99.90
2625;DHT22;1322;53.256;10.386;2024-02-23T07:52:24;7.30;99.90
2625;DHT22;1322;53.256;10.386;2024-02-23T07:54:53;7.40;99.90
2625;DHT22;1322;53.256;10.386;2024-02-23T07:57:19;7.40;99.90
2625;DHT22;1322;53.256;10.386;2024-02-23T07:59:46;7.40;99.90
2625;DHT22;1322;53.256;10.386;2024-02-23T08:02:11;7.40;99.90
2625;DHT22;1322;53.256;10.386;2024-02-23T08:04:37;7.40;99.90
2625;DHT22;1322;53.256;10.386;2024-02-23T08:07:03;7.40;99.90
2625;DHT22;1322;53.256;10.386;2024-02-23T08:09:29;7.40;99.90
2625;DHT22;1322;53.256;10.386;2024-02-23T08:11:55;7.50;99.90
2625;DHT22;1322;53.256;10.386;2024-02-23T08:14:21;7.40;99.90
2625;DHT22;1322;53.256;10.386;2024-02-23T08:16:46;7.40;99.90
2625;DHT22;1322;53.256;10.386;2024-02-23T08:19:12;7.50;99.90
2625;DHT22;1322;53.256;10.386;2024-02-23T08:21:38;7.50;99.90
2625;DHT22;1322;53.256;10.386;2024-02-23T08:24:05;7.60;99.90
2625;DHT22;1322;53.256;10.386;2024-02-23T08:26:30;7.70;99.90
2625;DHT22;1322;53.256;10.386;2024-02-23T08:28:56;7.70;99.90
2625;DHT22;1322;53.256;10.386;2024-02-23T08:31:22;7.70;99.90
2625;DHT22;1322;53.256;10.386;2024-02-23T08:33:48;7.80;99.90
2625;DHT22;1322;53.256;10.386;2024-02-23T08:36:13;7.80;99.90
2625;DHT22;1322;53.256;10.386;2024-02-23T08:38:39;7.90;99.90
2625;DHT22;1322;53.256;10.386;2024-02-23T08:41:05;8.00;99.90
2625;DHT22;1322;53.256;10.386;2024-02-23T08:43:30;8.10;99.90
2625;DHT22;1322;53.256;10.386;2024-02-23T08:45:56;8.30;99.90
2625;DHT22;1322;53.256;10.386;2024-02-23T08:48:22;8.40;99.90
2625;DHT22;1322;53.256;10.386;2024-02-23T08:50:47;8.50;99.90
2625;DHT22;1322;53.256;10.386;2024-02-23T08:53:17;8.60;99.90
2625;DHT22;1322;53.256;10.386;2024-02-23T08:55:42;8.70;99.90
2625;DHT22;1322;53.256;10.386;2024-02-23T08:58:08;8.70;99.90
2625;DHT22;1322;53.256;10.386;2024-02-23T09:00:34;8.80;99.90
2625;DHT22;1322;53.256;10.386;2024-02-23T09:03:02;8.90;99.90
2625;DHT22;1322;53.256;10.386;2024-02-23T09:05:28;9.10;99.90
2625;DHT22;1322;53.256;10.386;2024-02-23T09:07:54;9.10;99.90
2625;DHT22;1322;53.256;10.386;2024-02-23T09:10:19;9.10;99.90
2625;DHT22;1322;53.256;10.386;2024-02-23T09:12:45;9.10;99.90
2625;DHT22;1322;53.256;10.386;2024-02-23T09:15:11;9.30;99.90
2625;DHT22;1322;53.256;10.386;2024-02-23T09:17:37;9.40;99.90
2625;DHT22;1322;53.256;10.386;2024-02-23T09:20:03;9.30;99.90
2625;DHT22;1322;53.256;10.386;2024-02-23T09:22:28;9.20;99.90
2625;DHT22;1322;53.256;10.386;2024-02-23T09:24:54;9.20;99.90
2625;DHT22;1322;53.256;10.386;2024-02-23T09:27:21;9.20;99.90
2625;DHT22;1322;53.256;10.386;2024-02-23T09:29:47;9.00;99.90
2625;DHT22;1322;53.256;10.386;2024-02-23T09:32:12;9.00;99.90
2625;DHT22;1322;53.256;10.386;2024-02-23T09:34:38;9.10;99.90
2625;DHT22;1322;53.256;10.386;2024-02-23T09:37:04;9.20;99.90
2625;DHT22;1322;53.256;10.386;2024-02-23T09:39:29;9.30;99.90
2625;DHT22;1322;53.256;10.386;2024-02-23T09:41:56;9.30;99.90
2625;DHT22;1322;53.256;10.386;2024-02-23T09:44:22;9.30;99.90
2625;DHT22;1322;53.256;10.386;2024-02-23T09:46:48;9.20;99.90
2625;DHT22;1322;53.256;10.386;2024-02-23T09:49:15;9.20;99.90
2625;DHT22;1322;53.256;10.386;2024-02-23T09:51:41;9.20;99.90
2625;DHT22;1322;53.256;10.386;2024-02-23T09:54:07;9.00;99.90
2625;DHT22;1322;53.256;10.386;2024-02-23T09:56:33;9.00;99.90
2625;DHT22;1322;53.256;10.386;2024-02-23T09:59:01;9.10;99.90
2625;DHT22;1322;53.256;10.386;2024-02-23T10:01:29;9.30;99.90
2625;DHT22;1322;53.256;10.386;2024-02-23T10:04:02;9.30;99.90
2625;DHT22;1322;53.256;10.386;2024-02-23T10:06:32;9.30;99.90
2625;DHT22;1322;53.256;10.386;2024-02-23T10:08:57;9.30;99.90
2625;DHT22;1322;53.256;10.386;2024-02-23T10:11:24;9.30;99.90
2625;DHT22;1322;53.256;10.386;2024-02-23T10:13:51;9.40;99.90
2625;DHT22;1322;53.256;10.386;2024-02-23T10:16:22;9.40;99.90
2625;DHT22;1322;53.256;10.386;2024-02-23T10:18:48;9.40;99.90
2625;DHT22;1322;53.256;10.386;2024-02-23T10:21:17;9.40;99.90
2625;DHT22;1322;53.256;10.386;2024-02-23T10:23:47;9.70;99.90
2625;DHT22;1322;53.256;10.386;2024-02-23T10:26:13;9.60;99.90
2625;DHT22;1322;53.256;10.386;2024-02-23T10:28:45;9.70;99.90
2625;DHT22;1322;53.256;10.386;2024-02-23T10:31:11;9.90;99.90
2625;DHT22;1322;53.256;10.386;2024-02-23T10:33:38;10.00;99.90
2625;DHT22;1322;53.256;10.386;2024-02-23T10:36:05;10.20;99.90
2625;DHT22;1322;53.256;10.386;2024-02-23T10:38:35;10.30;99.90
2625;DHT22;1322;53.256;10.386;2024-02-23T10:41:05;10.20;99.90
2625;DHT22;1322;53.256;10.386;2024-02-23T10:43:46;9.90;99.90
2625;DHT22;1322;53.256;10.386;2024-02-23T10:46:12;9.70;99.90
2625;DHT22;1322;53.256;10.386;2024-02-23T10:48:40;9.70;99.90
2625;DHT22;1322;53.256;10.386;2024-02-23T10:51:07;9.70;99.90
2625;DHT22;1322;53.256;10.386;2024-02-23T10:53:34;9.90;99.90
2625;DHT22;1322;53.256;10.386;2024-02-23T10:56:00;10.10;99.90
2625;DHT22;1322;53.256;10.386;2024-02-23T10:58:26;10.20;99.90
2625;DHT22;1322;53.256;10.386;2024-02-23T11:00:53;10.30;99.90
2625;DHT22;1322;53.256;10.386;2024-02-23T11:03:27;10.50;99.90
2625;DHT22;1322;53.256;10.386;2024-02-23T11:05:54;10.60;99.90
2625;DHT22;1322;53.256;10.386;2024-02-23T11:08:20;10.60;99.90
2625;DHT22;1322;53.256;10.386;2024-02-23T11:10:52;10.60;99.90
2625;DHT22;1322;53.256;10.386;2024-02-23T11:13:17;10.60;99.90
2625;DHT22;1322;53.256;10.386;2024-02-23T11:15:43;10.70;99.90
2625;DHT22;1322;53.256;10.386;2024-02-23T11:18:42;10.70;99.90
2625;DHT22;1322;53.256;10.386;2024-02-23T11:21:09;10.90;99.90
2625;DHT22;1322;53.256;10.386;2024-02-23T11:23:42;10.90;99.90
2625;DHT22;1322;53.256;10.386;2024-02-23T11:26:12;11.00;99.90
2625;DHT22;1322;53.256;10.386;2024-02-23T11:28:47;11.10;99.90
2625;DHT22;1322;53.256;10.386;2024-02-23T11:31:15;11.00;99.90
2625;DHT22;1322;53.256;10.386;2024-02-23T11:33:48;11.00;99.90
2625;DHT22;1322;53.256;10.386;2024-02-23T11:36:42;10.80;99.90
2625;DHT22;1322;53.256;10.386;2024-02-23T11:39:10;10.60;99.90
2625;DHT22;1322;53.256;10.386;2024-02-23T11:41:38;10.50;99.90
2625;DHT22;1322;53.256;10.386;2024-02-23T11:44:04;10.40;99.90
2625;DHT22;1322;53.256;10.386;2024-02-23T11:46:32;10.30;99.90
2625;DHT22;1322;53.256;10.386;2024-02-23T11:48:58;10.40;99.90
2625;DHT22;1322;53.256;10.386;2024-02-23T11:51:25;10.50;99.90
2625;DHT22;1322;53.256;10.386;2024-02-23T11:53:55;10.50;99.90
2625;DHT22;1322;53.256;10.386;2024-02-23T11:56:23;10.60;99.90
2625;DHT22;1322;53.256;10.386;2024-02-23T11:58:49;10.60;99.90
2625;DHT22;1322;53.256;10.386;2024-02-23T12:01:19;10.50;99.90
2625;DHT22;1322;53.256;10.386;2024-02-23T12:03:45;10.50;99.90
2625;DHT22;1322;53.256;10.386;2024-02-23T12:06:11;10.50;99.90
2625;DHT22;1322;53.256;10.386;2024-02-23T12:08:38;10.60;99.90
2625;DHT22;1322;53.256;10.386;2024-02-23T12:11:09;10.50;99.90
2625;DHT22;1322;53.256;10.386;2024-02-23T12:13:35;10.50;99.90
2625;DHT22;1322;53.256;10.386;2024-02-23T12:16:02;10.50;99.90
2625;DHT22;1322;53.256;10.386;2024-02-23T12:18:28;10.50;99.90
2625;DHT22;1322;53.256;10.386;2024-02-23T12:21:00;10.50;99.90
2625;DHT22;1322;53.256;10.386;2024-02-23T12:23:49;10.70;99.90
2625;DHT22;1322;53.256;10.386;2024-02-23T12:26:14;10.70;99.90
2625;DHT22;1322;53.256;10.386;2024-02-23T12:28:40;10.70;99.90
2625;DHT22;1322;53.256;10.386;2024-02-23T12:31:06;10.70;99.90
2625;DHT22;1322;53.256;10.386;2024-02-23T12:33:33;10.70;99.90
2625;DHT22;1322;53.256;10.386;2024-02-23T12:36:03;10.60;99.90
2625;DHT22;1322;53.256;10.386;2024-02-23T12:38:29;10.60;99.90
2625;DHT22;1322;53.256;10.386;2024-02-23T12:40:55;10.60;99.90
2625;DHT22;1322;53.256;10.386;2024-02-23T12:43:21;10.80;99.90
2625;DHT22;1322;53.256;10.386;2024-02-23T12:45:50;11.00;99.90
2625;DHT22;1322;53.256;10.386;2024-02-23T12:48:16;11.10;99.90
2625;DHT22;1322;53.256;10.386;2024-02-23T12:50:43;10.90;99.90
2625;DHT22;1322;53.256;10.386;2024-02-23T12:53:09;10.90;99.90
2625;DHT22;1322;53.256;10.386;2024-02-23T12:55:35;10.90;99.90
2625;DHT22;1322;53.256;10.386;2024-02-23T12:58:02;10.80;99.90
2625;DHT22;1322;53.256;10.386;2024-02-23T13:00:28;10.70;99.90
2625;DHT22;1322;53.256;10.386;2024-02-23T13:02:54;10.80;99.90
2625;DHT22;1322;53.256;10.386;2024-02-23T13:05:20;11.00;99.90
2625;DHT22;1322;53.256;10.386;2024-02-23T13:07:45;11.00;99.90
2625;DHT22;1322;53.256;10.386;2024-02-23T13:10:12;10.90;99.90
2625;DHT22;1322;53.256;10.386;2024-02-23T13:12:38;10.70;99.90
2625;DHT22;1322;53.256;10.386;2024-02-23T13:15:04;10.80;99.90
2625;DHT22;1322;53.256;10.386;2024-02-23T13:17:29;11.00;99.90
2625;DHT22;1322;53.256;10.386;2024-02-23T13:19:55;10.90;99.90
2625;DHT22;1322;53.256;10.386;2024-02-23T13:22:21;10.80;99.90
2625;DHT22;1322;53.256;10.386;2024-02-23T13:24:46;10.80;99.90
2625;DHT22;1322;53.256;10.386;2024-02-23T13:27:12;10.80;99.90
2625;DHT22;1322;53.256;10.386;2024-02-23T13:29:37;10.80;99.90
2625;DHT22;1322;53.256;10.386;2024-02-23T13:32:03;10.90;99.90
2625;DHT22;1322;53.256;10.386;2024-02-23T13:34:29;11.00;99.90
2625;DHT22;1322;53.256;10.386;2024-02-23T13:36:54;11.00;99.90
2625;DHT22;1322;53.256;10.386;2024-02-23T13:39:20;10.90;99.90
2625;DHT22;1322;53.256;10.386;2024-02-23T13:41:46;10.80;99.90
2625;DHT22;1322;53.256;10.386;2024-02-23T13:44:11;10.80;99.90
2625;DHT22;1322;53.256;10.386;2024-02-23T13:46:40;10.70;99.90
2625;DHT22;1322;53.256;10.386;2024-02-23T13:49:06;10.70;99.90
2625;DHT22;1322;53.256;10.386;2024-02-23T13:51:33;10.70;99.90
2625;DHT22;1322;53.256;10.386;2024-02-23T13:53:59;10.60;99.90
2625;DHT22;1322;53.256;10.386;2024-02-23T13:56:24;10.60;99.90
2625;DHT22;1322;53.256;10.386;2024-02-23T13:58:50;10.70;99.90
2625;DHT22;1322;53.256;10.386;2024-02-23T14:01:16;10.70;99.90
2625;DHT22;1322;53.256;10.386;2024-02-23T14:03:42;10.70;99.90
2625;DHT22;1322;53.256;10.386;2024-02-23T14:06:08;10.80;99.90
2625;DHT22;1322;53.256;10.386;2024-02-23T14:08:34;10.90;99.90
2625;DHT22;1322;53.256;10.386;2024-02-23T14:11:00;10.80;99.90
2625;DHT22;1322;53.256;10.386;2024-02-23T14:13:26;10.80;99.90
2625;DHT22;1322;53.256;10.386;2024-02-23T14:15:52;10.70;99.90
2625;DHT22;1322;53.256;10.386;2024-02-23T14:18:17;10.70;99.90
2625;DHT22;1322;53.256;10.386;2024-02-23T14:20:43;10.80;99.90
2625;DHT22;1322;53.256;10.386;2024-02-23T14:23:09;10.80;99.90
2625;DHT22;1322;53.256;10.386;2024-02-23T14:25:34;10.90;99.90
2625;DHT22;1322;53.256;10.386;2024-02-23T14:28:00;10.90;99.90
2625;DHT22;1322;53.256;10.386;2024-02-23T14:30:26;11.00;99.90
2625;DHT22;1322;53.256;10.386;2024-02-23T14:32:51;11.10;99.90
2625;DHT22;1322;53.256;10.386;2024-02-23T14:35:17;11.00;99.90
2625;DHT22;1322;53.256;10.386;2024-02-23T14:37:43;11.00;99.90
2625;DHT22;1322;53.256;10.386;2024-02-23T14:40:09;11.10;99.90
2625;DHT22;1322;53.256;10.386;2024-02-23T14:42:34;11.10;99.90
2625;DHT22;1322;53.256;10.386;2024-02-23T14:45:00;11.00;99.90
2625;DHT22;1322;53.256;10.386;2024-02-23T14:47:26;10.90;99.90
2625;DHT22;1322;53.256;10.386;2024-02-23T14:49:51;10.90;99.90
2625;DHT22;1322;53.256;10.386;2024-02-23T14:52:17;11.00;99.90
2625;DHT22;1322;53.256;10.386;2024-02-23T14:54:42;11.10;99.90
2625;DHT22;1322;53.256;10.386;2024-02-23T14:57:08;11.00;99.90
2625;DHT22;1322;53.256;10.386;2024-02-23T14:59:34;10.90;99.90
2625;DHT22;1322;53.256;10.386;2024-02-23T15:02:19;10.90;99.90
2625;DHT22;1322;53.256;10.386;2024-02-23T15:04:45;10.90;99.90
2625;DHT22;1322;53.256;10.386;2024-02-23T15:07:11;11.00;99.90
2625;DHT22;1322;53.256;10.386;2024-02-23T15:09:36;11.00;99.90
2625;DHT22;1322;53.256;10.386;2024-02-23T15:12:02;11.00;99.90
2625;DHT22;1322;53.256;10.386;2024-02-23T15:14:28;11.00;99.90
2625;DHT22;1322;53.256;10.386;2024-02-23T15:16:54;11.00;99.90
2625;DHT22;1322;53.256;10.386;2024-02-23T15:19:20;10.90;99.90
2625;DHT22;1322;53.256;10.386;2024-02-23T15:21:48;10.90;99.90
2625;DHT22;1322;53.256;10.386;2024-02-23T15:24:14;10.90;99.90
2625;DHT22;1322;53.256;10.386;2024-02-23T15:26:43;10.80;99.90
2625;DHT22;1322;53.256;10.386;2024-02-23T15:29:09;10.80;99.90
2625;DHT22;1322;53.256;10.386;2024-02-23T15:31:35;10.70;99.90
2625;DHT22;1322;53.256;10.386;2024-02-23T15:34:01;10.60;99.90
2625;DHT22;1322;53.256;10.386;2024-02-23T15:36:27;10.70;99.90
2625;DHT22;1322;53.256;10.386;2024-02-23T15:38:53;10.80;99.90
2625;DHT22;1322;53.256;10.386;2024-02-23T15:41:27;10.80;99.90
2625;DHT22;1322;53.256;10.386;2024-02-23T15:43:52;10.90;99.90
2625;DHT22;1322;53.256;10.386;2024-02-23T15:46:18;10.90;99.90
2625;DHT22;1322;53.256;10.386;2024-02-23T15:48:43;10.90;99.90